createdAt,value
2019-02-05T00:09:43.094Z,79.53
2019-02-05T00:19:45.564Z,79.27
2019-02-05T00:29:47.091Z,76.93
2019-02-05T00:39:48.516Z,71.80
2019-02-05T00:49:49.920Z,72.53
2019-02-05T00:59:51.560Z,58.87
2019-02-05T01:09:52.968Z,57.13
2019-02-05T01:19:55.416Z,58.40
2019-02-05T01:29:56.852Z,54.13
2019-02-05T01:39:58.460Z,58.47
2019-02-05T01:49:59.876Z,49.80
2019-02-05T02:00:01.773Z,49.27
2019-02-05T02:10:07.232Z,44.80
2019-02-05T02:20:17.969Z,41.07
2019-02-05T02:30:32.033Z,45.13
2019-02-05T02:40:33.544Z,40.00
2019-02-05T02:50:35.108Z,46.67
2019-02-05T03:00:36.604Z,55.37
2019-02-05T03:10:38.173Z,44.63
2019-02-05T03:20:41.370Z,44.97
2019-02-05T03:30:42.886Z,43.07
2019-02-05T03:40:56.567Z,47.20
2019-02-05T03:51:07.748Z,45.93
2019-02-05T04:01:18.920Z,40.60
2019-02-05T04:11:33.204Z,46.93
2019-02-05T04:21:48.682Z,48.53
2019-02-05T04:31:54.002Z,58.67
2019-02-05T04:42:11.381Z,64.03
2019-02-05T04:52:26.999Z,63.03
2019-02-05T05:02:35.180Z,62.20
2019-02-05T05:12:36.594Z,58.73
2019-02-05T05:22:39.262Z,55.93
2019-02-05T05:32:40.995Z,59.50
2019-02-05T05:42:42.401Z,69.30
2019-02-05T05:52:43.816Z,63.47
2019-02-05T06:02:45.545Z,75.07
2019-02-05T06:12:47.055Z,105.10
2019-02-05T06:22:49.601Z,80.43
2019-02-05T06:32:51.197Z,72.93
2019-02-05T06:42:52.696Z,65.10
2019-02-05T06:52:54.153Z,60.30
2019-02-05T07:02:55.623Z,116.17
2019-02-05T07:12:57.113Z,131.00
2019-02-05T07:22:59.545Z,145.93
2019-02-05T07:33:01.089Z,148.50
2019-02-05T07:43:02.601Z,136.00
2019-02-05T07:53:04.174Z,148.20
2019-02-05T08:03:05.886Z,172.77
2019-02-05T08:13:07.544Z,163.80
2019-02-05T08:23:09.932Z,191.90
2019-02-05T08:33:11.544Z,186.83
2019-02-05T08:43:12.964Z,147.87
2019-02-05T08:53:14.422Z,140.65
2019-02-05T09:03:15.857Z,148.13
2019-02-05T09:13:17.312Z,176.65
2019-02-05T09:23:20.603Z,88.05
2019-02-05T09:33:22.236Z,80.72
2019-02-05T09:43:23.660Z,83.12
2019-02-05T09:53:25.040Z,95.97
2019-02-05T10:03:26.558Z,101.82
2019-02-05T10:13:28.017Z,92.02
2019-02-05T10:23:32.040Z,64.80
2019-02-05T10:33:33.576Z,49.18
2019-02-05T10:43:35.198Z,42.35
2019-02-05T10:53:36.873Z,31.02
2019-02-05T11:03:38.319Z,30.47
2019-02-05T11:13:39.712Z,29.97
2019-02-05T11:23:42.153Z,28.87
2019-02-05T11:33:43.670Z,33.23
2019-02-05T11:43:45.076Z,25.50
2019-02-05T11:53:46.497Z,19.30
2019-02-05T12:03:47.924Z,20.53
2019-02-05T12:13:49.397Z,21.27
2019-02-05T12:23:51.840Z,24.53
2019-02-05T12:33:53.346Z,23.13
2019-02-05T12:43:54.761Z,25.57
2019-02-05T12:53:56.249Z,26.43
2019-02-05T13:03:57.745Z,25.07
2019-02-05T13:13:59.408Z,23.83
2019-02-05T13:24:01.838Z,25.23
2019-02-05T13:34:04.156Z,26.97
2019-02-05T13:44:05.678Z,29.80
2019-02-05T13:54:07.160Z,28.10
2019-02-05T14:04:08.588Z,27.67
2019-02-05T14:14:11.256Z,188.77
2019-02-05T14:24:12.792Z,78.73
2019-02-05T14:34:14.328Z,68.70
2019-02-05T14:44:15.831Z,156.50
2019-02-05T14:54:17.132Z,87.90
2019-02-05T15:04:18.561Z,85.03
2019-02-05T15:14:19.976Z,41.27
2019-02-05T15:24:22.493Z,41.27
2019-02-05T15:34:24.134Z,39.37
2019-02-05T15:44:25.540Z,39.70
2019-02-05T15:54:26.962Z,31.77
2019-02-05T16:04:28.399Z,35.43
2019-02-05T16:14:29.828Z,32.40
2019-02-05T16:24:32.389Z,188.87
2019-02-05T16:34:33.924Z,56.07
2019-02-05T16:44:35.544Z,50.17
2019-02-05T16:54:37.000Z,98.70
2019-02-05T17:04:38.532Z,37.70
2019-02-05T17:14:39.916Z,38.03
2019-02-05T17:24:42.372Z,26.73
2019-02-05T17:34:43.880Z,39.57
2019-02-05T17:44:45.308Z,29.57
2019-02-05T17:54:47.193Z,39.13
2019-02-05T18:04:48.653Z,47.63
2019-02-05T18:14:50.086Z,45.93
2019-02-05T18:24:52.437Z,47.57
2019-02-05T18:34:53.972Z,45.03
2019-02-05T18:44:55.394Z,51.67
2019-02-05T18:54:56.763Z,49.83
2019-02-05T19:04:58.209Z,48.37
2019-02-05T19:14:59.596Z,71.27
2019-02-05T19:25:05.812Z,51.33
2019-02-05T19:35:07.456Z,45.83
2019-02-05T19:45:29.274Z,44.00
2019-02-05T19:55:31.114Z,60.97
2019-02-05T20:05:32.554Z,45.67
2019-02-05T20:15:33.974Z,66.17
2019-02-05T20:25:37.207Z,77.93
2019-02-05T20:35:38.841Z,117.97
2019-02-05T20:45:40.281Z,48.70
2019-02-05T20:55:41.757Z,33.03
2019-02-05T21:05:43.283Z,27.33
2019-02-05T21:15:44.840Z,26.03
2019-02-05T21:25:47.196Z,23.77
2019-02-05T21:35:48.753Z,23.83
2019-02-05T21:45:50.180Z,21.90
2019-02-05T21:55:52.149Z,25.97
2019-02-05T22:05:53.593Z,30.43
2019-02-05T22:15:55.018Z,35.67
2019-02-05T22:25:57.369Z,35.70
2019-02-05T22:35:58.901Z,36.37
2019-02-05T22:46:00.408Z,33.30
2019-02-05T22:56:02.324Z,32.17
2019-02-05T23:06:13.824Z,33.47
2019-02-05T23:16:15.233Z,28.47
2019-02-05T23:26:17.627Z,22.90
2019-02-05T23:36:19.108Z,19.60
2019-02-05T23:46:20.515Z,20.33
2019-02-05T23:56:26.178Z,24.70
